Time;durP1;ratioP1;P1;durP2;ratioP2;P2;SDS_P1;SDS_P2;PMS_P1;PMS_P2;Temp;Humidity;BMP_temperature;BMP_pressure;BME280_temperature;BME280_humidity;BME280_pressure;Samples;Min_cycle;Max_cycle;Signal;HPM_P1;HPM_P2
2021/07/17 00:00:42;;;;;;;16.67;15.57;;;16.80;89.10;;;;;;5218084;28;20041;-69
2021/07/17 00:03:14;;;;;;;15.77;14.57;;;16.80;88.60;;;;;;5217944;28;20056;-70
2021/07/17 00:05:46;;;;;;;15.70;14.60;;;16.80;89.20;;;;;;5218898;28;20664;-70
2021/07/17 00:08:18;;;;;;;15.80;14.70;;;16.80;88.70;;;;;;5218573;28;20674;-68
2021/07/17 00:10:50;;;;;;;16.25;15.15;;;16.80;88.30;;;;;;5217629;28;20103;-69
2021/07/17 00:13:22;;;;;;;15.93;14.73;;;16.80;89.00;;;;;;5219856;28;20116;-69
2021/07/17 00:15:56;;;;;;;16.52;15.32;;;16.80;88.60;;;;;;5217772;28;20084;-70
2021/07/17 00:18:28;;;;;;;15.93;14.73;;;16.80;89.20;;;;;;5218370;28;20052;-69
2021/07/17 00:21:00;;;;;;;16.23;15.13;;;16.80;89.00;;;;;;5218524;28;20102;-70
2021/07/17 00:23:32;;;;;;;16.13;15.02;;;16.80;89.40;;;;;;5218575;28;20489;-70
2021/07/17 00:26:04;;;;;;;17.38;16.15;;;16.70;90.00;;;;;;5218216;28;20052;-69
2021/07/17 00:28:36;;;;;;;16.75;15.55;;;16.60;90.00;;;;;;5217470;28;20112;-70
2021/07/17 00:31:07;;;;;;;16.48;15.23;;;16.60;90.50;;;;;;5217461;28;20098;-69
2021/07/17 00:33:40;;;;;;;16.80;15.60;;;16.50;90.20;;;;;;5217836;28;20597;-69
2021/07/17 00:36:11;;;;;;;16.83;15.52;;;16.50;90.60;;;;;;5218572;28;20130;-70
2021/07/17 00:38:44;;;;;;;16.25;15.15;;;16.50;90.60;;;;;;5215978;28;20138;-69
2021/07/17 00:41:16;;;;;;;16.65;15.45;;;16.40;90.20;;;;;;5218725;28;20072;-69
2021/07/17 00:43:48;;;;;;;16.42;15.32;;;16.50;89.80;;;;;;5218002;28;20132;-71
2021/07/17 00:46:19;;;;;;;16.42;15.23;;;16.50;90.10;;;;;;5217519;28;20053;-70
2021/07/17 00:48:51;;;;;;;16.40;15.30;;;16.50;90.40;;;;;;5215432;28;20119;-69
2021/07/17 00:51:26;;;;;;;16.85;15.65;;;16.50;90.50;;;;;;5217873;28;20177;-70
2021/07/17 00:54:01;;;;;;;16.95;15.75;;;16.40;90.60;;;;;;5216259;28;20044;-70
2021/07/17 00:56:34;;;;;;;16.75;15.55;;;16.40;90.80;;;;;;5217230;28;20120;-70
2021/07/17 00:59:08;;;;;;;16.90;15.70;;;16.50;90.60;;;;;;5216254;28;20168;-70
2021/07/17 01:01:40;;;;;;;17.75;16.55;;;16.50;90.20;;;;;;5233289;28;20080;-71
2021/07/17 01:04:13;;;;;;;17.88;16.67;;;16.50;90.70;;;;;;5216059;28;20167;-69
2021/07/17 01:06:45;;;;;;;16.20;15.10;;;16.50;90.20;;;;;;5215773;28;20049;-69
2021/07/17 01:09:17;;;;;;;16.67;15.57;;;16.50;89.70;;;;;;5216971;28;20124;-69
2021/07/17 01:11:51;;;;;;;16.90;15.70;;;16.60;90.10;;;;;;5216309;28;20098;-69
2021/07/17 01:14:24;;;;;;;16.38;15.27;;;16.60;90.50;;;;;;5217069;28;20056;-70
2021/07/17 01:16:55;;;;;;;17.05;15.77;;;16.60;90.20;;;;;;5216079;28;20040;-70
2021/07/17 01:19:28;;;;;;;16.45;15.35;;;16.60;90.00;;;;;;5218347;28;20643;-70
2021/07/17 01:22:00;;;;;;;16.67;15.57;;;16.60;89.80;;;;;;5215853;28;20741;-70
2021/07/17 01:24:32;;;;;;;17.75;16.55;;;16.60;89.80;;;;;;5218089;28;20075;-70
2021/07/17 01:27:04;;;;;;;17.05;15.85;;;16.60;89.80;;;;;;5231075;28;20512;-70
2021/07/17 01:29:37;;;;;;;16.67;15.55;;;16.60;89.50;;;;;;5212443;28;20040;-70
2021/07/17 01:32:09;;;;;;;16.98;15.77;;;16.60;89.90;;;;;;5216448;28;20126;-70
2021/07/17 01:34:41;;;;;;;17.15;15.95;;;16.60;89.20;;;;;;5217680;28;20120;-70
2021/07/17 01:37:13;;;;;;;17.33;16.02;;;16.70;89.30;;;;;;5215114;28;20068;-71
2021/07/17 01:39:46;;;;;;;16.75;15.60;;;16.60;90.50;;;;;;5217897;28;20099;-70
2021/07/17 01:42:19;;;;;;;16.80;15.68;;;16.60;90.40;;;;;;5216719;28;20457;-70
2021/07/17 01:44:50;;;;;;;17.92;16.63;;;16.60;90.20;;;;;;5217381;28;20076;-70
2021/07/17 01:47:22;;;;;;;17.77;16.58;;;16.60;90.70;;;;;;5231660;28;20086;-70
2021/07/17 01:49:54;;;;;;;17.63;16.33;;;16.60;90.40;;;;;;5216972;28;20119;-71
2021/07/17 01:52:26;;;;;;;18.23;16.92;;;16.60;90.80;;;;;;5215863;28;20118;-70
2021/07/17 01:54:58;;;;;;;17.75;16.55;;;16.60;90.60;;;;;;5217543;28;20122;-69
2021/07/17 01:57:30;;;;;;;18.52;17.25;;;16.60;90.90;;;;;;5216623;28;20083;-70
2021/07/17 02:00:04;;;;;;;17.90;16.70;;;16.50;90.90;;;;;;5216514;28;20128;-69
2021/07/17 02:02:37;;;;;;;18.08;16.77;;;16.50;90.70;;;;;;5215801;28;20613;-69
2021/07/17 02:05:10;;;;;;;18.00;16.75;;;16.50;90.70;;;;;;5216867;28;20041;-69
2021/07/17 02:07:44;;;;;;;18.23;17.02;;;16.50;90.60;;;;;;5218887;28;20056;-70
2021/07/17 02:10:19;;;;;;;17.95;16.65;;;16.50;90.70;;;;;;5217161;28;20063;-71
2021/07/17 02:13:13;;;;;;;17.85;16.65;;;16.60;90.20;;;;;;5215028;28;20037;-70
2021/07/17 02:15:48;;;;;;;18.13;16.73;;;16.50;90.20;;;;;;5215201;28;20517;-70
2021/07/17 02:18:32;;;;;;;17.45;16.23;;;16.60;90.30;;;;;;5232377;28;20045;-70
2021/07/17 02:21:07;;;;;;;17.70;16.40;;;16.60;89.90;;;;;;5217190;28;20063;-70
2021/07/17 02:23:39;;;;;;;17.60;16.33;;;16.60;90.20;;;;;;5216786;28;20124;-70
2021/07/17 02:26:12;;;;;;;18.08;16.83;;;16.60;89.60;;;;;;5215832;28;20050;-70
2021/07/17 02:28:43;;;;;;;17.88;16.65;;;16.60;90.00;;;;;;5216682;28;20049;-69
2021/07/17 02:31:15;;;;;;;17.75;16.55;;;16.60;89.70;;;;;;5213887;28;20132;-69
2021/07/17 02:33:47;;;;;;;18.13;16.83;;;16.70;89.40;;;;;;5216591;28;20033;-69
2021/07/17 02:36:19;;;;;;;17.70;16.50;;;16.60;89.40;;;;;;5215751;28;20110;-69
2021/07/17 02:38:51;;;;;;;18.63;17.38;;;16.70;89.60;;;;;;5215563;28;20124;-69
2021/07/17 02:41:24;;;;;;;17.95;16.58;;;16.70;90.10;;;;;;5214849;28;20041;-70
2021/07/17 02:43:56;;;;;;;17.40;16.20;;;16.70;89.80;;;;;;5216280;28;20068;-70
2021/07/17 02:46:27;;;;;;;17.20;16.00;;;16.70;90.00;;;;;;5232112;28;20557;-70
2021/07/17 02:48:59;;;;;;;18.00;16.75;;;16.70;90.30;;;;;;5215762;28;20068;-70
2021/07/17 02:51:31;;;;;;;17.88;16.55;;;16.60;89.90;;;;;;5216687;28;20102;-70
2021/07/17 02:54:03;;;;;;;17.42;16.23;;;16.60;89.50;;;;;;5214274;28;20124;-70
2021/07/17 02:56:35;;;;;;;17.15;15.95;;;16.60;89.20;;;;;;5216321;28;20045;-70
2021/07/17 02:59:08;;;;;;;17.80;16.60;;;16.70;89.50;;;;;;5215841;28;20098;-71
2021/07/17 03:01:40;;;;;;;17.25;16.05;;;16.70;89.70;;;;;;5213302;28;20391;-70
2021/07/17 03:04:12;;;;;;;18.05;16.60;;;16.60;89.80;;;;;;5214017;28;20114;-71
2021/07/17 03:06:44;;;;;;;17.75;16.55;;;16.60;89.70;;;;;;5215503;28;20095;-70
2021/07/17 03:09:16;;;;;;;18.20;16.80;;;16.60;89.90;;;;;;5217556;28;20835;-70
2021/07/17 03:11:48;;;;;;;17.35;16.23;;;16.60;89.30;;;;;;5220905;28;20087;-70
2021/07/17 03:14:20;;;;;;;17.23;16.08;;;16.60;89.80;;;;;;5219088;28;20075;-70
2021/07/17 03:16:52;;;;;;;16.85;15.75;;;16.60;89.70;;;;;;5219742;28;20042;-71
2021/07/17 03:19:24;;;;;;;17.15;15.95;;;16.60;89.80;;;;;;5218562;28;20397;-70
2021/07/17 03:21:56;;;;;;;16.58;15.38;;;16.60;89.90;;;;;;5219418;28;20117;-70
2021/07/17 03:24:28;;;;;;;16.98;15.85;;;16.60;89.50;;;;;;5219866;28;20441;-70
2021/07/17 03:27:00;;;;;;;17.00;15.80;;;16.60;90.00;;;;;;5219646;28;20654;-70
2021/07/17 03:29:32;;;;;;;17.63;16.42;;;16.60;90.40;;;;;;5219341;28;20129;-70
2021/07/17 03:32:04;;;;;;;17.80;16.60;;;16.60;90.20;;;;;;5234087;28;20120;-71
2021/07/17 03:34:36;;;;;;;17.58;16.17;;;16.60;90.10;;;;;;5219937;28;20068;-70
2021/07/17 03:37:08;;;;;;;18.30;17.05;;;16.60;89.70;;;;;;5214772;28;20055;-70
2021/07/17 03:39:40;;;;;;;17.40;15.70;;;16.60;89.90;;;;;;5218601;28;20088;-70
2021/07/17 03:42:12;;;;;;;18.20;16.88;;;16.60;89.80;;;;;;5218306;28;20049;-71
2021/07/17 03:44:44;;;;;;;17.60;16.40;;;16.60;89.90;;;;;;5219518;28;20095;-70
2021/07/17 03:47:16;;;;;;;17.77;16.58;;;16.70;90.10;;;;;;5217352;28;20132;-72
2021/07/17 03:49:48;;;;;;;17.33;16.13;;;16.70;90.10;;;;;;5219893;28;20828;-71
2021/07/17 03:52:20;;;;;;;18.60;17.20;;;16.70;90.40;;;;;;5219511;28;20045;-70
2021/07/17 03:54:52;;;;;;;17.92;16.48;;;16.70;89.90;;;;;;5219457;28;20032;-70
2021/07/17 03:57:24;;;;;;;18.05;16.75;;;16.70;90.70;;;;;;5217114;28;20099;-69
2021/07/17 03:59:56;;;;;;;17.90;16.70;;;16.60;90.60;;;;;;5219369;28;20064;-70
2021/07/17 04:02:33;;;;;;;18.25;17.05;;;16.60;90.60;;;;;;5218173;28;20132;-70
2021/07/17 04:05:07;;;;;;;18.55;17.25;;;16.60;90.70;;;;;;5219222;28;20040;-70
2021/07/17 04:07:40;;;;;;;19.45;17.83;;;16.60;90.90;;;;;;5218814;28;20037;-70
2021/07/17 04:10:13;;;;;;;19.20;17.77;;;16.50;90.50;;;;;;5219860;28;20158;-69
2021/07/17 04:12:45;;;;;;;18.70;17.42;;;16.60;90.90;;;;;;5220163;28;20045;-71
2021/07/17 04:15:17;;;;;;;18.73;17.30;;;16.60;90.90;;;;;;5216071;28;20044;-71
2021/07/17 04:17:49;;;;;;;19.27;17.75;;;16.60;90.20;;;;;;5217114;28;20041;-70
2021/07/17 04:20:22;;;;;;;19.30;17.90;;;16.50;90.40;;;;;;5216904;28;20116;-70
2021/07/17 04:22:53;;;;;;;18.05;16.85;;;16.60;90.00;;;;;;5219839;28;20061;-69
2021/07/17 04:25:25;;;;;;;18.70;17.50;;;16.60;90.10;;;;;;5218800;28;21184;-69
2021/07/17 04:27:57;;;;;;;18.80;17.50;;;16.60;90.30;;;;;;5201266;28;20083;-70
2021/07/17 04:30:29;;;;;;;18.33;17.13;;;16.60;90.00;;;;;;5218698;28;20595;-69
2021/07/17 04:33:01;;;;;;;17.98;16.67;;;16.60;90.30;;;;;;5219159;28;20132;-71
2021/07/17 04:35:34;;;;;;;17.70;16.40;;;16.60;90.60;;;;;;5233449;28;20068;-70
2021/07/17 04:38:06;;;;;;;17.92;16.63;;;16.60;90.90;;;;;;5219132;28;20128;-71
2021/07/17 04:40:38;;;;;;;17.83;16.63;;;16.60;90.70;;;;;;5219079;28;20057;-69
2021/07/17 04:43:10;;;;;;;18.33;17.02;;;16.60;90.50;;;;;;5219011;28;20175;-70
2021/07/17 04:45:42;;;;;;;17.67;16.48;;;16.60;90.10;;;;;;5216771;28;20132;-70
2021/07/17 04:48:14;;;;;;;18.00;16.80;;;16.60;90.00;;;;;;5218168;28;20049;-70
2021/07/17 04:50:46;;;;;;;18.50;17.10;;;16.70;90.60;;;;;;5200449;28;20048;-72
2021/07/17 04:53:18;;;;;;;18.35;17.05;;;16.60;90.20;;;;;;5222161;28;20072;-70
2021/07/17 04:55:49;;;;;;;18.42;17.23;;;16.60;90.70;;;;;;5218484;28;20135;-71
2021/07/17 04:58:22;;;;;;;18.30;17.10;;;16.60;91.00;;;;;;5217330;28;20041;-70
2021/07/17 05:00:53;;;;;;;18.10;16.90;;;16.60;90.50;;;;;;5217723;28;20051;-69
2021/07/17 05:03:25;;;;;;;18.23;17.02;;;16.70;90.90;;;;;;5216154;28;20048;-69
2021/07/17 05:05:57;;;;;;;18.27;16.98;;;16.70;90.90;;;;;;5216993;28;20130;-70
2021/07/17 05:08:29;;;;;;;18.08;16.88;;;16.70;90.40;;;;;;5214598;28;20132;-69
2021/07/17 05:11:01;;;;;;;18.05;16.58;;;16.70;91.00;;;;;;5216026;28;20119;-69
2021/07/17 05:13:37;;;;;;;18.23;17.00;;;16.70;90.70;;;;;;5217821;28;20047;-70
2021/07/17 05:16:09;;;;;;;18.85;17.45;;;16.70;90.90;;;;;;5223215;28;20132;-71
2021/07/17 05:18:41;;;;;;;18.65;17.35;;;16.70;91.00;;;;;;5218206;28;20437;-71
2021/07/17 05:21:13;;;;;;;18.95;17.50;;;16.70;90.90;;;;;;5218916;28;20037;-70
2021/07/17 05:23:45;;;;;;;18.08;16.88;;;16.70;91.00;;;;;;5217682;28;20052;-70
2021/07/17 05:26:17;;;;;;;18.60;17.30;;;16.80;90.60;;;;;;5215803;28;20261;-71
2021/07/17 05:28:49;;;;;;;18.65;17.35;;;16.80;91.20;;;;;;5217032;28;20128;-70
2021/07/17 05:31:21;;;;;;;19.05;17.65;;;16.80;90.50;;;;;;5231680;28;20135;-70
2021/07/17 05:33:53;;;;;;;18.27;16.98;;;16.80;90.50;;;;;;5217687;28;20114;-70
2021/07/17 05:36:25;;;;;;;18.05;16.85;;;16.80;90.40;;;;;;5215245;28;20045;-70
2021/07/17 05:38:57;;;;;;;17.80;16.50;;;16.80;90.70;;;;;;5214374;28;20051;-71
2021/07/17 05:41:28;;;;;;;17.63;16.42;;;16.80;90.50;;;;;;5214229;28;20083;-70
2021/07/17 05:44:00;;;;;;;17.90;16.60;;;16.80;90.90;;;;;;5232772;28;20573;-71
2021/07/17 05:46:33;;;;;;;18.55;17.25;;;16.80;91.00;;;;;;5215786;28;20068;-70
2021/07/17 05:49:04;;;;;;;18.25;17.05;;;16.80;90.90;;;;;;5217851;28;20119;-72
2021/07/17 05:51:36;;;;;;;18.65;17.35;;;16.80;91.40;;;;;;5214686;28;20466;-71
2021/07/17 05:54:08;;;;;;;18.45;17.00;;;16.80;91.30;;;;;;5216468;28;20094;-70
2021/07/17 05:56:40;;;;;;;18.00;16.80;;;16.80;90.80;;;;;;5700408;22;20045;-72
2021/07/17 05:59:12;;;;;;;17.73;16.52;;;16.80;91.00;;;;;;5236962;28;20037;-72
2021/07/17 06:01:44;;;;;;;17.67;16.33;;;16.80;91.00;;;;;;5236463;28;20040;-71
2021/07/17 06:04:16;;;;;;;17.55;16.15;;;16.80;90.60;;;;;;5237590;28;20060;-72
2021/07/17 06:06:48;;;;;;;17.38;16.17;;;16.90;90.60;;;;;;5226041;28;20134;-71
2021/07/17 06:09:20;;;;;;;17.88;16.58;;;16.90;90.50;;;;;;5238294;28;20052;-72
2021/07/17 06:11:52;;;;;;;17.95;16.58;;;16.90;90.40;;;;;;5237459;28;20163;-71
2021/07/17 06:14:25;;;;;;;17.50;16.30;;;16.90;91.20;;;;;;5236751;28;20145;-71
2021/07/17 06:16:57;;;;;;;17.92;16.52;;;16.90;90.20;;;;;;5234171;28;20183;-72
2021/07/17 06:19:31;;;;;;;18.42;17.13;;;16.90;91.10;;;;;;5237438;28;20045;-71
2021/07/17 06:22:03;;;;;;;18.35;17.05;;;16.80;90.90;;;;;;5236963;28;20063;-71
2021/07/17 06:24:35;;;;;;;18.23;16.92;;;16.80;90.90;;;;;;5237323;28;20093;-71
2021/07/17 06:27:07;;;;;;;18.00;16.50;;;16.90;91.10;;;;;;5236427;28;20048;-70
2021/07/17 06:29:39;;;;;;;19.15;17.73;;;16.90;90.90;;;;;;5237940;28;20045;-70
2021/07/17 06:32:11;;;;;;;19.17;17.77;;;16.90;90.90;;;;;;5235057;28;20076;-70
2021/07/17 06:34:43;;;;;;;20.60;19.10;;;17.00;91.10;;;;;;5235552;28;20040;-70
2021/07/17 06:37:15;;;;;;;22.48;20.60;;;17.10;91.00;;;;;;5235318;28;20135;-72
2021/07/17 06:39:48;;;;;;;22.38;20.55;;;17.20;90.90;;;;;;5237269;28;20069;-70
2021/07/17 06:42:20;;;;;;;22.50;20.73;;;17.30;90.90;;;;;;5236676;28;20155;-71
2021/07/17 06:44:52;;;;;;;23.38;21.42;;;17.30;90.90;;;;;;5241809;28;20124;-69
2021/07/17 06:47:26;;;;;;;24.02;22.10;;;17.30;91.30;;;;;;5239545;28;20046;-70
2021/07/17 06:49:58;;;;;;;24.92;22.67;;;17.30;91.30;;;;;;5226622;28;20488;-69
2021/07/17 06:52:29;;;;;;;24.95;22.80;;;17.30;91.60;;;;;;5240608;28;20568;-70
2021/07/17 06:55:06;;;;;;;23.88;21.88;;;17.40;91.90;;;;;;5241885;28;20123;-71
2021/07/17 06:57:40;;;;;;;25.33;23.08;;;17.40;91.10;;;;;;5240278;28;20098;-70
2021/07/17 07:00:15;;;;;;;23.63;21.77;;;17.40;91.60;;;;;;5238676;28;20114;-70
2021/07/17 07:02:47;;;;;;;25.48;23.27;;;17.50;91.20;;;;;;5224914;28;20048;-69
2021/07/17 07:05:19;;;;;;;24.65;22.60;;;17.50;91.10;;;;;;5241225;28;20036;-70
2021/07/17 07:07:51;;;;;;;25.05;23.05;;;17.60;91.00;;;;;;5241764;28;20596;-71
2021/07/17 07:10:23;;;;;;;24.70;22.70;;;17.60;90.80;;;;;;5240306;28;20084;-71
2021/07/17 07:12:55;;;;;;;25.65;23.55;;;17.80;90.90;;;;;;5239922;28;20040;-73
2021/07/17 07:15:27;;;;;;;26.50;24.35;;;18.10;91.20;;;;;;5240740;28;20090;-71
2021/07/17 07:17:59;;;;;;;26.90;24.75;;;18.20;90.30;;;;;;5240985;28;20064;-70
2021/07/17 07:20:31;;;;;;;28.17;25.80;;;18.20;90.00;;;;;;5239160;28;20149;-72
2021/07/17 07:23:03;;;;;;;27.45;25.27;;;18.30;89.60;;;;;;5241222;28;20524;-71
2021/07/17 07:25:35;;;;;;;28.52;26.13;;;18.20;89.70;;;;;;5239065;28;20549;-71
2021/07/17 07:28:07;;;;;;;28.95;26.45;;;18.30;90.20;;;;;;5240405;28;20049;-71
2021/07/17 07:30:39;;;;;;;28.35;25.95;;;18.30;90.20;;;;;;5239553;28;20464;-71
2021/07/17 07:33:11;;;;;;;28.05;25.67;;;18.30;89.60;;;;;;5239548;28;20163;-70
2021/07/17 07:35:43;;;;;;;28.90;26.45;;;18.30;89.60;;;;;;5239939;28;20103;-69
2021/07/17 07:38:15;;;;;;;28.05;25.65;;;18.40;89.30;;;;;;5238933;28;20073;-72
2021/07/17 07:40:47;;;;;;;29.17;26.50;;;18.40;89.60;;;;;;5221672;28;20105;-71
2021/07/17 07:43:19;;;;;;;30.60;27.90;;;18.50;89.30;;;;;;5239847;28;20685;-71
2021/07/17 07:45:51;;;;;;;28.83;26.42;;;18.50;89.40;;;;;;5240145;28;20514;-70
2021/07/17 07:48:22;;;;;;;29.27;26.88;;;18.60;89.20;;;;;;5222853;28;20045;-71
2021/07/17 07:50:55;;;;;;;28.60;26.20;;;18.70;89.40;;;;;;5239883;28;20048;-72
2021/07/17 07:53:27;;;;;;;28.48;26.08;;;18.80;89.00;;;;;;5219914;28;20060;-70
2021/07/17 07:56:02;;;;;;;30.10;27.42;;;18.90;88.60;;;;;;5238252;28;20048;-71
2021/07/17 07:58:34;;;;;;;29.35;26.88;;;18.90;89.10;;;;;;5227482;28;20048;-72
2021/07/17 08:01:05;;;;;;;30.20;27.67;;;19.00;88.90;;;;;;5239962;28;20041;-71
2021/07/17 08:03:37;;;;;;;30.02;27.50;;;19.20;89.40;;;;;;5241488;28;20055;-71
2021/07/17 08:06:10;;;;;;;29.80;27.40;;;19.50;87.90;;;;;;5240279;28;20052;-72
2021/07/17 08:08:42;;;;;;;29.90;27.38;;;19.90;88.40;;;;;;5239351;28;20161;-71
2021/07/17 08:11:14;;;;;;;30.50;27.90;;;20.20;87.20;;;;;;5239767;28;20048;-71
2021/07/17 08:13:46;;;;;;;29.17;26.88;;;20.50;87.30;;;;;;5240974;28;20529;-70
2021/07/17 08:16:19;;;;;;;28.38;26.05;;;20.70;86.60;;;;;;5239797;28;20055;-71
2021/07/17 08:18:50;;;;;;;28.35;26.15;;;20.70;85.60;;;;;;5239775;28;20068;-70
2021/07/17 08:21:22;;;;;;;29.13;26.63;;;20.60;83.70;;;;;;5240209;28;20132;-70
2021/07/17 08:23:55;;;;;;;27.63;25.52;;;20.50;85.10;;;;;;5238666;28;20565;-71
2021/07/17 08:26:27;;;;;;;28.40;26.10;;;20.40;85.80;;;;;;5240120;28;20131;-70
2021/07/17 08:28:58;;;;;;;28.27;25.88;;;20.30;85.90;;;;;;5239133;28;20147;-70
2021/07/17 08:31:31;;;;;;;28.00;25.70;;;20.20;85.80;;;;;;5239987;28;20139;-71
2021/07/17 08:34:03;;;;;;;27.67;25.42;;;20.10;85.80;;;;;;5240677;28;20047;-71
2021/07/17 08:36:35;;;;;;;27.85;25.45;;;20.10;85.80;;;;;;5239792;28;20390;-71
2021/07/17 08:39:06;;;;;;;28.63;26.33;;;20.10;85.40;;;;;;5239652;28;20090;-71
2021/07/17 08:41:43;;;;;;;29.23;26.85;;;20.00;86.20;;;;;;5238076;28;20094;-70
2021/07/17 08:44:18;;;;;;;28.38;26.05;;;20.00;86.30;;;;;;5239570;28;20048;-71
2021/07/17 08:46:54;;;;;;;28.65;26.08;;;20.10;86.50;;;;;;5239058;28;20132;-70
2021/07/17 08:49:26;;;;;;;28.27;26.08;;;20.10;85.60;;;;;;5240035;28;20053;-71
2021/07/17 08:51:59;;;;;;;28.17;25.85;;;20.20;85.60;;;;;;5225789;28;20044;-71
2021/07/17 08:54:32;;;;;;;28.20;25.77;;;20.20;85.20;;;;;;5238202;28;20033;-71
2021/07/17 08:57:06;;;;;;;28.48;26.17;;;20.10;85.80;;;;;;5239615;28;20083;-72
2021/07/17 08:59:39;;;;;;;27.65;25.35;;;20.00;84.80;;;;;;5225179;28;20540;-71
2021/07/17 09:02:12;;;;;;;27.23;24.92;;;19.80;85.40;;;;;;5238868;28;20048;-71
2021/07/17 09:04:44;;;;;;;27.40;25.30;;;19.80;85.80;;;;;;5239531;28;20047;-70
2021/07/17 09:07:20;;;;;;;27.38;25.20;;;19.80;86.30;;;;;;5220385;28;20123;-73
2021/07/17 09:09:52;;;;;;;26.00;23.90;;;19.70;86.30;;;;;;5226788;28;20040;-70
2021/07/17 09:12:25;;;;;;;26.02;24.02;;;19.60;85.80;;;;;;5237930;28;20048;-71
2021/07/17 09:14:57;;;;;;;25.85;23.85;;;19.50;86.50;;;;;;5239468;28;20051;-70
2021/07/17 09:17:31;;;;;;;26.55;24.45;;;19.60;87.00;;;;;;5238726;28;20131;-70
2021/07/17 09:20:04;;;;;;;26.83;24.65;;;19.60;86.70;;;;;;5221247;28;20041;-71
2021/07/17 09:22:38;;;;;;;27.63;25.30;;;19.70;86.50;;;;;;5239898;28;20064;-70
2021/07/17 09:25:16;;;;;;;28.00;25.60;;;19.80;86.30;;;;;;5238685;28;20111;-71
2021/07/17 09:27:48;;;;;;;28.52;26.13;;;19.90;86.60;;;;;;5225624;28;20132;-70
2021/07/17 09:30:25;;;;;;;28.35;26.05;;;20.00;85.90;;;;;;5238792;28;20102;-71
2021/07/17 09:33:02;;;;;;;27.90;25.73;;;20.00;85.70;;;;;;5238909;28;20517;-71
2021/07/17 09:35:38;;;;;;;28.45;26.15;;;20.00;85.30;;;;;;5237771;28;20594;-71
2021/07/17 09:38:11;;;;;;;27.95;25.55;;;19.90;84.60;;;;;;5238857;28;20617;-71
2021/07/17 09:40:50;;;;;;;27.00;24.90;;;19.80;85.20;;;;;;5237853;28;20148;-70
2021/07/17 09:43:33;;;;;;;27.83;25.58;;;19.80;85.40;;;;;;5238767;28;20053;-71
2021/07/17 09:46:26;;;;;;;27.02;24.92;;;19.80;85.30;;;;;;5234591;28;20121;-70
2021/07/17 09:49:01;;;;;;;26.67;24.48;;;19.90;85.70;;;;;;5238982;28;20408;-71
2021/07/17 09:51:35;;;;;;;28.38;26.08;;;19.90;86.20;;;;;;5238829;28;20529;-70
2021/07/17 09:54:07;;;;;;;28.23;25.92;;;20.10;86.20;;;;;;5239290;28;20131;-71
2021/07/17 09:56:41;;;;;;;27.80;25.60;;;20.20;86.30;;;;;;5238753;28;20131;-72
2021/07/17 09:59:15;;;;;;;28.75;26.35;;;20.30;85.00;;;;;;5220851;28;20124;-71
2021/07/17 10:01:48;;;;;;;27.83;25.63;;;20.30;84.70;;;;;;5238089;28;20451;-70
2021/07/17 10:04:24;;;;;;;27.83;25.40;;;20.40;84.80;;;;;;5239585;28;20114;-71
2021/07/17 10:06:58;;;;;;;27.75;25.45;;;20.30;85.00;;;;;;5238364;28;20056;-71
2021/07/17 10:09:35;;;;;;;27.50;25.20;;;20.40;84.50;;;;;;5225577;28;20593;-72
2021/07/17 10:12:08;;;;;;;27.25;25.05;;;20.40;84.00;;;;;;5238575;28;20045;-71
2021/07/17 10:14:42;;;;;;;28.45;26.10;;;20.40;83.30;;;;;;5238779;28;20789;-71
2021/07/17 10:17:17;;;;;;;27.42;25.23;;;20.40;84.20;;;;;;5237686;28;20090;-71
2021/07/17 10:19:49;;;;;;;28.50;26.15;;;20.50;83.70;;;;;;5230148;28;20529;-71
2021/07/17 10:22:24;;;;;;;27.67;25.42;;;20.60;83.30;;;;;;5230533;28;20094;-70
2021/07/17 10:24:57;;;;;;;27.05;24.92;;;20.70;83.80;;;;;;5243099;28;20048;-72
2021/07/17 10:27:29;;;;;;;27.77;25.33;;;20.70;83.50;;;;;;5242632;28;20456;-72
2021/07/17 10:30:08;;;;;;;26.73;24.63;;;20.70;83.40;;;;;;5243231;28;20049;-71
2021/07/17 10:32:56;;;;;;;27.60;25.33;;;20.70;83.00;;;;;;5241619;28;20048;-70
2021/07/17 10:35:28;;;;;;;26.38;24.38;;;20.80;82.20;;;;;;5242401;28;20386;-71
2021/07/17 10:38:04;;;;;;;27.30;25.10;;;20.80;82.10;;;;;;5242470;28;20048;-73
2021/07/17 10:40:38;;;;;;;26.52;24.45;;;20.90;81.90;;;;;;5242630;28;20063;-71
2021/07/17 10:43:12;;;;;;;27.85;25.65;;;21.00;81.90;;;;;;5242998;28;20072;-71
2021/07/17 10:45:45;;;;;;;27.40;25.30;;;21.20;81.10;;;;;;5238771;28;20036;-71
2021/07/17 10:48:23;;;;;;;26.98;24.95;;;21.30;80.40;;;;;;5238430;28;20044;-72
2021/07/17 10:50:59;;;;;;;26.63;24.63;;;21.30;79.30;;;;;;5240910;28;20041;-71
2021/07/17 10:53:48;;;;;;;26.07;24.07;;;21.30;79.70;;;;;;5242287;28;20044;-73
2021/07/17 10:56:29;;;;;;;27.13;25.02;;;21.40;78.30;;;;;;5240788;28;20257;-72
2021/07/17 10:59:25;;;;;;;27.30;25.13;;;21.50;79.00;;;;;;5241543;28;20755;-72
2021/07/17 11:02:02;;;;;;;25.67;23.67;;;21.60;78.30;;;;;;5240557;28;20567;-72
2021/07/17 11:04:49;;;;;;;26.40;24.40;;;21.70;79.00;;;;;;5236737;28;20044;-72
2021/07/17 11:07:23;;;;;;;32.55;29.58;;;21.70;77.90;;;;;;5238831;28;20556;-72
2021/07/17 11:09:58;;;;;;;35.28;31.95;;;21.60;76.90;;;;;;5240089;28;20047;-72
2021/07/17 11:12:44;;;;;;;27.15;24.95;;;21.50;77.20;;;;;;5238996;28;20040;-72
2021/07/17 11:15:19;;;;;;;29.63;27.13;;;21.40;76.80;;;;;;5241546;28;20040;-71
2021/07/17 11:17:54;;;;;;;27.90;25.40;;;21.20;77.50;;;;;;5239434;28;20447;-71
2021/07/17 11:20:39;;;;;;;31.17;28.25;;;21.20;78.70;;;;;;5240864;28;20049;-72
2021/07/17 11:23:16;;;;;;;27.25;24.90;;;21.20;78.10;;;;;;5241356;28;20115;-72
2021/07/17 11:25:56;;;;;;;30.30;27.45;;;21.20;77.40;;;;;;5240217;28;20505;-74
2021/07/17 11:31:52;;;;;;;25.63;23.42;;;21.50;78.20;;;;;;5186759;28;20396;-71
2021/07/17 11:34:24;;;;;;;25.35;23.17;;;21.60;78.30;;;;;;5236073;28;20047;-72
2021/07/17 11:37:02;;;;;;;24.80;22.98;;;21.70;77.60;;;;;;5239313;28;20122;-72
2021/07/17 11:39:37;;;;;;;24.85;22.95;;;21.60;76.90;;;;;;5235968;28;20064;-72
2021/07/17 11:42:12;;;;;;;24.38;22.58;;;21.50;77.70;;;;;;5236634;28;20308;-73
2021/07/17 11:44:56;;;;;;;24.88;22.90;;;21.50;78.00;;;;;;5238425;28;20102;-72
2021/07/17 11:47:31;;;;;;;25.15;23.23;;;21.30;77.80;;;;;;5239522;28;20040;-71
2021/07/17 11:50:04;;;;;;;24.40;22.50;;;21.30;78.30;;;;;;5238565;28;20460;-73
2021/07/17 11:52:37;;;;;;;24.77;22.85;;;21.20;77.70;;;;;;5241326;28;20815;-72
2021/07/17 11:55:13;;;;;;;24.05;22.13;;;21.10;78.80;;;;;;5239486;28;20628;-72
2021/07/17 11:57:46;;;;;;;24.48;22.58;;;21.10;78.80;;;;;;5228384;28;20044;-71
2021/07/17 12:00:21;;;;;;;23.60;21.80;;;21.00;78.70;;;;;;5239195;28;20123;-72
2021/07/17 12:02:57;;;;;;;23.95;22.15;;;21.00;78.10;;;;;;5240063;28;20064;-71
2021/07/17 12:05:30;;;;;;;24.50;22.42;;;20.90;79.10;;;;;;5238601;28;20041;-71
2021/07/17 12:08:03;;;;;;;24.70;22.55;;;20.80;78.70;;;;;;5238681;28;20040;-70
2021/07/17 12:10:35;;;;;;;25.27;23.17;;;20.80;79.00;;;;;;5236882;28;20622;-71
2021/07/17 12:13:06;;;;;;;24.60;22.60;;;20.80;79.20;;;;;;5237586;28;20064;-71
2021/07/17 12:15:39;;;;;;;25.88;23.63;;;20.90;80.00;;;;;;5237293;28;20498;-71
2021/07/17 12:18:16;;;;;;;25.25;23.15;;;21.00;79.50;;;;;;5240231;28;20045;-71
2021/07/17 12:20:52;;;;;;;24.83;22.83;;;21.10;79.50;;;;;;5237537;28;20044;-72
2021/07/17 12:23:26;;;;;;;24.83;22.73;;;21.10;79.50;;;;;;5235764;28;20130;-71
2021/07/17 12:26:03;;;;;;;25.23;23.23;;;21.10;78.00;;;;;;5237740;28;20584;-71
2021/07/17 12:28:36;;;;;;;24.58;22.67;;;21.10;78.40;;;;;;5219113;28;20451;-70
2021/07/17 12:31:10;;;;;;;25.33;23.33;;;21.10;78.50;;;;;;5221893;28;20053;-72
2021/07/17 12:33:46;;;;;;;25.45;23.33;;;21.30;78.40;;;;;;5225933;28;20098;-71
2021/07/17 12:36:26;;;;;;;24.90;22.85;;;21.40;78.50;;;;;;5238658;28;20079;-71
2021/07/17 12:39:00;;;;;;;25.52;23.55;;;21.50;78.70;;;;;;5238282;28;20491;-70
2021/07/17 12:41:36;;;;;;;25.80;23.60;;;21.60;79.10;;;;;;5235091;28;20060;-71
2021/07/17 12:44:10;;;;;;;25.13;23.13;;;21.50;77.20;;;;;;5236476;28;20489;-71
2021/07/17 12:46:48;;;;;;;25.15;23.15;;;21.50;77.20;;;;;;5237033;28;20051;-71
2021/07/17 12:49:21;;;;;;;25.60;23.70;;;21.40;78.30;;;;;;5236385;28;20087;-71
2021/07/17 12:51:53;;;;;;;24.60;22.67;;;21.30;78.60;;;;;;5238323;28;20049;-70
2021/07/17 12:54:29;;;;;;;25.00;23.08;;;21.30;79.00;;;;;;5239143;28;20057;-73
2021/07/17 12:57:02;;;;;;;26.58;24.38;;;21.30;79.00;;;;;;5236919;28;20120;-75
2021/07/17 12:59:37;;;;;;;26.15;24.02;;;21.20;78.50;;;;;;5234542;28;20119;-73
2021/07/17 13:02:16;;;;;;;26.27;24.17;;;21.00;78.40;;;;;;5236630;28;20045;-71